• Join FlightAware (Why Join?)
  • Login
  • US Flag 
03:35PM EDT


 

Airport Tracker/Info


-or-


 

Live Flight TrackerFlight Track Log ✈ EGF4247 ✈ 02-May-2013 ✈ KBUF - KORD

Flight Track Log - Related Links

Times and Time Zones

All times are in EDT time to prevent confusion due to time zone crossing. See the EGF4247 flight status page for this flight to view local times or setup timezone preferences in your user account.

Time Position Orientation Groundspeed Altitude Reporting Facility
EDT Latitude Longitude Course Direction KTS MPH feet Rate Location/Type
03:47PM 42.9500 -78.7000 270° West 166 191 1,600  Level Buffalo TRACON
03:48PM 42.9833 -78.6833 20° North 190 219 2,600 1,560 Climbing Buffalo TRACON
03:49PM 43.0167 -78.7500 304° West 263 303 4,300 2,040 Climbing Buffalo TRACON
03:50PM 42.9521 -79.0920 277° West  Level FlightAware Approximate
03:50PM 43.0167 -78.8500 270° West 271 312 6,700  Level Buffalo TRACON
03:51PM 42.9626 -79.2173 277° West  Level FlightAware Approximate
03:51PM 43.0167 -78.9333 270° West 270 311 8,600  Level Toronto Center
03:52PM 42.9667 -79.3431 270° West  Level FlightAware Approximate
03:52PM 43.0167 -79.0333 270° West 290 334 10,600  Level Toronto Center
03:53PM 42.9667 -79.4692 270° West  Level FlightAware Approximate
03:53PM 43.0167 -79.1500 270° West 310 357 12,000  Level Toronto Center
03:54PM 43.0167 -79.2667 270° West 330 380 13,500 1,500 Climbing Toronto Center
03:55PM 43.0167 -79.4000 270° West 340 391 15,100 1,500 Climbing Toronto Center
03:56PM 43.0167 -79.5500 270° West 350 403 16,500 1,440 Climbing Toronto Center
03:57PM 43.0167 -79.6833 270° West 350 403 18,000 1,320 Climbing Toronto Center
03:58PM 43.0167 -79.8167 270° West 350 403 19,200 1,260 Climbing Toronto Center
03:59PM 43.0167 -79.9333 270° West 350 403 20,600 1,500 Climbing Toronto Center
04:00PM 43.0333 -80.0833 279° West 360 414 22,200 1,500 Climbing Toronto Center
04:01PM 43.0333 -80.2000 270° West 360 414 23,600 1,440 Climbing Toronto Center
04:02PM 43.0333 -80.3333 270° West 360 414 25,100 1,500 Climbing Toronto Center
04:03PM 43.0333 -80.4833 270° West 350 403 26,600 1,500 Climbing Toronto Center
04:04PM 43.0333 -80.6167 270° West 350 403 28,100 1,260 Climbing Toronto Center
04:05PM 43.0333 -80.7500 270° West 340 391 29,200 1,020 Climbing Toronto Center
04:06PM 43.0167 -80.8833 260° West 350 403 30,200 960 Climbing Toronto Center
04:07PM 43.0167 -81.0167 270° West 360 414 31,200 900 Climbing Toronto Center
04:08PM 43.0167 -81.1667 270° West 360 414 32,000 360 Climbing Toronto Center
04:09PM 43.0167 -81.3000 270° West 380 437 32,000  Level Toronto Center
04:10PM 43.0167 -81.4500 270° West 410 472 32,000  Level Toronto Center
04:11PM 43.0167 -81.6167 270° West 420 483 32,000  Level Toronto Center
04:12PM 43.0167 -81.7833 270° West 430 495 32,000  Level Toronto Center
04:13PM 43.0000 -81.9333 261° West 430 495 32,000  Level Toronto Center
04:14PM 43.0000 -82.1000 270° West 440 506 32,000  Level Toronto Center
04:15PM 43.0000 -82.2833 270° West 440 506 32,000  Level Toronto Center
04:16PM 43.0000 -82.4333 270° West 430 495 32,000  Level Toronto Center
04:17PM 43.0000 -82.6167 270° West 430 495 32,000  Level Toronto Center
04:17PM 43.0042 -82.6583 278° West 437 503 32,000  Level Cleveland Center
04:18PM 42.9992 -82.8231 268° West 437 503 32,000  Level Cleveland Center
04:19PM 42.9958 -82.9847 268° West 437 503 32,000  Level Cleveland Center
04:20PM 42.9881 -83.1489 266° West 437 503 32,000  Level Cleveland Center
04:21PM 42.9822 -83.3161 267° West 437 503 32,000  Level Cleveland Center
04:22PM 42.9761 -83.4778 267° West 437 503 32,000  Level Cleveland Center
04:23PM 42.9697 -83.6447 267° West 437 503 32,000  Level Cleveland Center
04:24PM 42.9592 -83.8061 265° West 437 503 32,000  Level Cleveland Center
04:25PM 42.9461 -83.9672 264° West 437 503 32,000  Level Cleveland Center
04:26PM 42.9289 -84.1250 262° West 442 509 32,000  Level Cleveland Center
04:27PM 42.9133 -84.2886 263° West 442 509 32,000  Level Cleveland Center
04:28PM 42.8986 -84.4547 263° West 429 494 32,000  Level Chicago Center
04:29PM 42.8817 -84.6161 262° West 430 495 32,000  Level Chicago Center
04:30PM 42.8658 -84.7764 262° West 428 493 32,000  Level Chicago Center
04:32PM 42.8486 -84.9364 262° West 428 493 32,000  Level Chicago Center
04:33PM 42.8317 -85.0983 262° West 431 496 32,000 -420 Level Chicago Center
04:34PM 42.8100 -85.2911 261° West 431 496 31,200 -960 Descending Chicago Center
04:35PM 42.7908 -85.4517 261° West 430 495 30,100 -1,440 Descending Chicago Center
04:36PM 42.7592 -85.6089 255° West 428 493 28,300 -1,920 Descending Chicago Center
04:37PM 42.7275 -85.7708 255° West 438 504 26,200 -2,040 Descending Chicago Center
04:38PM 42.6958 -85.9311 255° West 436 502 24,100 -2,040 Descending Chicago Center
04:39PM 42.6656 -86.0847 255° West 422 486 22,000 -1,860 Descending Chicago Center
04:41PM 42.6244 -86.3144 256° West  Level FlightAware Approximate
04:44PM 42.5158 -86.8286 270° West 376 433 12,700  Level Chicago Center
04:46PM 42.4299 -87.0046 251° West  Level Estimated
04:46PM 42.4600 -87.0903 217° Southwest 358 412 9,900  Level Chicago Center
04:47PM 42.4208 -87.2372 250° West 348 400 10,000  Climbing Chicago Center
04:48PM 42.4235 -87.2064 251° West  Level FlightAware Approximate
04:48PM 42.3872 -87.3583 249° West 346 398 10,000  Level Chicago Center
04:49PM 42.3833 -87.3229 270° West  Level FlightAware Approximate
04:49PM 42.3544 -87.4747 249° West 336 387 10,000  Level Chicago Center
04:50PM 42.2992 -87.5764 234° Southwest 349 402 10,000 -300 Level Chicago Center
04:51PM 42.2350 -87.6442 218° Southwest 303 349 9,400 -1,200 Descending Chicago Center
04:52PM 42.1656 -87.7186 218° Southwest 270 311 7,500 -1,260 Descending Chicago Center
04:53PM 42.0470 -87.7768 217° Southwest  Level Estimated
04:53PM 42.1167 -87.7667 216° Southwest 233 268 7,100  Level Chicago TRACON
04:54PM 41.9919 -87.8863 217° Southwest  Level Estimated
04:54PM 42.0833 -87.8333 236° Southwest 239 275 7,000  Level Chicago TRACON
04:55PM 42.0833 -87.9167 270° West 254 292 7,000  Level Chicago TRACON
04:56PM 42.1000 -88.0000 285° West 214 246 7,000 -240 Level Chicago TRACON
04:57PM 42.0833 -88.0833 255° West 206 237 6,500 -900 Descending Chicago TRACON
04:58PM 42.0833 -88.1500 270° West 198 228 5,200 -1,500 Descending Chicago TRACON
04:58PM 42.0792 -88.1786 259° West 199 229 4,400 -1,440 Descending Chicago Center
04:59PM 42.0306 -88.1769 179° South 186 214 3,100 -720 Descending Chicago Center
05:00PM 42.0081 -88.1214 119° Southeast 173 199 3,000 -120 Descending Chicago Center
05:01PM 42.0000 -88.1000 117° Southeast 163 188 3,000  Level Chicago TRACON